SHT8N EGPH-EGKK
Flight info
| Callsign | SHT8N |
|---|---|
| Flight time | 0h 58m |
| Altitude | 35000 |
| Route | GOSAM P600 FENIK L612 NAVSO DCT ADZOP DCT EGTOC DCT KEPAD L151 DISIT |
| Aircraft | A20N/M-SDE2E3FGHIRWXY/LB1 |
Departure
| Time | 2026-04-23 17:25 |
|---|---|
| Airport | Edinburgh Airport (EGPH) |
Arrival
| Time | 2026-04-23 18:24 |
|---|---|
| Airport | London Gatwick Airport (EGKK) |
| Time | Latitude | Longitude | Altitude | Speed | Heading |
|---|---|---|---|---|---|
| 2026-04-23 17:07 | 55.94915 | -3.36422 | 108 ft | 0 kts | 148° |
| 2026-04-23 17:17 | 55.94924 | -3.36433 | 108 ft | 3 kts | 148° |
| 2026-04-23 17:17 | 55.94944 | -3.36455 | 106 ft | 3 kts | 148° |
| 2026-04-23 17:17 | 55.94957 | -3.36469 | 109 ft | 3 kts | 148° |
| 2026-04-23 17:17 | 55.94985 | -3.36477 | 109 ft | 3 kts | 222° |
| 2026-04-23 17:18 | 55.94989 | -3.36471 | 108 ft | 0 kts | 243° |
| 2026-04-23 17:21 | 55.94980 | -3.36500 | 107 ft | 6 kts | 237° |
| 2026-04-23 17:22 | 55.94945 | -3.36599 | 108 ft | 10 kts | 238° |
| 2026-04-23 17:22 | 55.94922 | -3.36904 | 108 ft | 16 kts | 253° |
| 2026-04-23 17:23 | 55.94764 | -3.37376 | 111 ft | 27 kts | 239° |
| 2026-04-23 17:23 | 55.94667 | -3.37659 | 116 ft | 23 kts | 239° |
| 2026-04-23 17:23 | 55.94630 | -3.37989 | 115 ft | 13 kts | 330° |
| 2026-04-23 17:24 | 55.94719 | -3.38048 | 120 ft | 15 kts | 20° |
| 2026-04-23 17:24 | 55.94733 | -3.38023 | 117 ft | 0 kts | 58° |
| 2026-04-23 17:24 | 55.94868 | -3.37628 | 115 ft | 80 kts | 58° |
| 2026-04-23 17:25 | 55.95842 | -3.34752 | 858 ft | 154 kts | 54° |
| 2026-04-23 17:25 | 55.96644 | -3.33430 | 1710 ft | 167 kts | 34° |
| 2026-04-23 17:26 | 55.98800 | -3.30655 | 2794 ft | 204 kts | 43° |
| 2026-04-23 17:26 | 56.01440 | -3.27626 | 3522 ft | 254 kts | 7° |
| 2026-04-23 17:27 | 56.04744 | -3.29764 | 5167 ft | 265 kts | 309° |
| 2026-04-23 17:27 | 56.05610 | -3.32664 | 6158 ft | 266 kts | 281° |
| 2026-04-23 17:27 | 56.05619 | -3.35914 | 7125 ft | 267 kts | 254° |
| 2026-04-23 17:27 | 56.04780 | -3.38845 | 8008 ft | 270 kts | 230° |
| 2026-04-23 17:28 | 56.03525 | -3.41401 | 8956 ft | 274 kts | 230° |
| 2026-04-23 17:28 | 56.02424 | -3.44177 | 9922 ft | 278 kts | 239° |
| 2026-04-23 17:28 | 56.01566 | -3.47330 | 10786 ft | 285 kts | 246° |
| 2026-04-23 17:28 | 56.00882 | -3.50817 | 11186 ft | 308 kts | 252° |
| 2026-04-23 17:29 | 56.00292 | -3.54599 | 11502 ft | 330 kts | 254° |
| 2026-04-23 17:29 | 55.99724 | -3.58636 | 12223 ft | 337 kts | 255° |
| 2026-04-23 17:29 | 55.98560 | -3.66874 | 13907 ft | 345 kts | 255° |
| 2026-04-23 17:30 | 55.98160 | -3.69628 | 14424 ft | 348 kts | 255° |
| 2026-04-23 17:30 | 55.96717 | -3.79444 | 15973 ft | 360 kts | 254° |
| 2026-04-23 17:30 | 55.96073 | -3.83797 | 16633 ft | 365 kts | 254° |
| 2026-04-23 17:31 | 55.95417 | -3.88219 | 17296 ft | 371 kts | 254° |
| 2026-04-23 17:31 | 55.94749 | -3.92701 | 17933 ft | 376 kts | 254° |
| 2026-04-23 17:31 | 55.94077 | -3.97184 | 18578 ft | 381 kts | 252° |
| 2026-04-23 17:31 | 55.92985 | -4.01508 | 19174 ft | 382 kts | 234° |
| 2026-04-23 17:32 | 55.91221 | -4.05051 | 19792 ft | 383 kts | 220° |
| 2026-04-23 17:32 | 55.89130 | -4.07947 | 20385 ft | 385 kts | 214° |
| 2026-04-23 17:32 | 55.86890 | -4.10628 | 20989 ft | 389 kts | 212° |
| 2026-04-23 17:32 | 55.85376 | -4.12382 | 21381 ft | 391 kts | 212° |
| 2026-04-23 17:33 | 55.82331 | -4.15930 | 22164 ft | 396 kts | 213° |
| 2026-04-23 17:33 | 55.80800 | -4.17742 | 22574 ft | 398 kts | 213° |
| 2026-04-23 17:33 | 55.77731 | -4.21386 | 23327 ft | 402 kts | 210° |
| 2026-04-23 17:33 | 55.75176 | -4.23449 | 23880 ft | 405 kts | 199° |
| 2026-04-23 17:34 | 55.73390 | -4.24450 | 24199 ft | 407 kts | 193° |
| 2026-04-23 17:34 | 55.70577 | -4.25070 | 24679 ft | 409 kts | 179° |
| 2026-04-23 17:34 | 55.65048 | -4.22633 | 25574 ft | 415 kts | 156° |
| 2026-04-23 17:35 | 55.62433 | -4.20366 | 26012 ft | 419 kts | 152° |
| 2026-04-23 17:35 | 55.57286 | -4.15307 | 26850 ft | 426 kts | 151° |
| 2026-04-23 17:35 | 55.54719 | -4.12749 | 27259 ft | 429 kts | 151° |
| 2026-04-23 17:36 | 55.52104 | -4.10167 | 27649 ft | 432 kts | 151° |
| 2026-04-23 17:36 | 55.49456 | -4.07574 | 28035 ft | 436 kts | 151° |
| 2026-04-23 17:36 | 55.46780 | -4.04967 | 28411 ft | 439 kts | 152° |
| 2026-04-23 17:36 | 55.44100 | -4.02366 | 28767 ft | 442 kts | 152° |
| 2026-04-23 17:37 | 55.41390 | -3.99740 | 29128 ft | 445 kts | 152° |
| 2026-04-23 17:37 | 55.38693 | -3.97131 | 29482 ft | 448 kts | 152° |
| 2026-04-23 17:37 | 55.33169 | -3.91800 | 30165 ft | 453 kts | 151° |
| 2026-04-23 17:38 | 55.30432 | -3.89165 | 30482 ft | 456 kts | 152° |
| 2026-04-23 17:38 | 55.27631 | -3.86473 | 30752 ft | 459 kts | 152° |
| 2026-04-23 17:38 | 55.24819 | -3.83776 | 31039 ft | 462 kts | 151° |
| 2026-04-23 17:38 | 55.21921 | -3.81306 | 31339 ft | 464 kts | 158° |
| 2026-04-23 17:39 | 55.18899 | -3.79425 | 31658 ft | 465 kts | 163° |
| 2026-04-23 17:39 | 55.15803 | -3.77752 | 32027 ft | 465 kts | 163° |
| 2026-04-23 17:39 | 55.12711 | -3.76077 | 32411 ft | 465 kts | 163° |
| 2026-04-23 17:39 | 55.09620 | -3.74396 | 32786 ft | 465 kts | 163° |
| 2026-04-23 17:40 | 55.06524 | -3.72708 | 33132 ft | 465 kts | 163° |
| 2026-04-23 17:40 | 55.03428 | -3.71019 | 33491 ft | 465 kts | 163° |
| 2026-04-23 17:40 | 55.00365 | -3.69350 | 33826 ft | 465 kts | 163° |
| 2026-04-23 17:40 | 54.97272 | -3.67668 | 34166 ft | 465 kts | 163° |
| 2026-04-23 17:41 | 54.94180 | -3.65988 | 34484 ft | 465 kts | 163° |
| 2026-04-23 17:41 | 54.88020 | -3.62651 | 35096 ft | 464 kts | 163° |
| 2026-04-23 17:41 | 54.84941 | -3.60986 | 35355 ft | 463 kts | 163° |
| 2026-04-23 17:42 | 54.75739 | -3.56029 | 35419 ft | 461 kts | 163° |
| 2026-04-23 17:43 | 54.69603 | -3.52737 | 35419 ft | 461 kts | 163° |
| 2026-04-23 17:43 | 54.63507 | -3.49476 | 35417 ft | 462 kts | 163° |
| 2026-04-23 17:44 | 54.57336 | -3.46186 | 35418 ft | 462 kts | 163° |
| 2026-04-23 17:44 | 54.48108 | -3.41284 | 35420 ft | 463 kts | 163° |
| 2026-04-23 17:45 | 54.38887 | -3.36409 | 35421 ft | 463 kts | 163° |
| 2026-04-23 17:46 | 54.29648 | -3.31547 | 35422 ft | 464 kts | 163° |
| 2026-04-23 17:46 | 54.23486 | -3.28318 | 35424 ft | 464 kts | 163° |
| 2026-04-23 17:47 | 54.17216 | -3.25515 | 35420 ft | 464 kts | 171° |
| 2026-04-23 17:48 | 54.07592 | -3.23885 | 35423 ft | 465 kts | 175° |
| 2026-04-23 17:48 | 54.01144 | -3.22644 | 35414 ft | 465 kts | 169° |
| 2026-04-23 17:49 | 53.94954 | -3.19537 | 35411 ft | 465 kts | 158° |
| 2026-04-23 17:49 | 53.88943 | -3.15593 | 35404 ft | 465 kts | 159° |
| 2026-04-23 17:50 | 53.82894 | -3.11684 | 35399 ft | 466 kts | 159° |
| 2026-04-23 17:50 | 53.73768 | -3.05838 | 35401 ft | 466 kts | 159° |
| 2026-04-23 17:51 | 53.67701 | -3.01967 | 35401 ft | 467 kts | 159° |
| 2026-04-23 17:52 | 53.58576 | -2.96166 | 35428 ft | 468 kts | 159° |
| 2026-04-23 17:52 | 53.49476 | -2.90409 | 35429 ft | 468 kts | 159° |
| 2026-04-23 17:53 | 53.40310 | -2.84636 | 35403 ft | 469 kts | 159° |
| 2026-04-23 17:54 | 53.34203 | -2.80804 | 35407 ft | 469 kts | 159° |
| 2026-04-23 17:54 | 53.25020 | -2.75064 | 35410 ft | 469 kts | 159° |
| 2026-04-23 17:55 | 53.15870 | -2.69372 | 35417 ft | 469 kts | 159° |
| 2026-04-23 17:56 | 53.09732 | -2.65568 | 35417 ft | 469 kts | 159° |
| 2026-04-23 17:56 | 53.00561 | -2.59905 | 35416 ft | 469 kts | 159° |
| 2026-04-23 17:57 | 52.94463 | -2.56154 | 35411 ft | 469 kts | 159° |
| 2026-04-23 17:58 | 52.85246 | -2.50507 | 35405 ft | 469 kts | 159° |
| 2026-04-23 17:58 | 52.79358 | -2.46083 | 35401 ft | 467 kts | 148° |
| 2026-04-23 17:59 | 52.73931 | -2.40159 | 35413 ft | 466 kts | 144° |
| 2026-04-23 17:59 | 52.68564 | -2.34205 | 35414 ft | 466 kts | 144° |
| 2026-04-23 18:00 | 52.63167 | -2.28269 | 35410 ft | 467 kts | 145° |
| 2026-04-23 18:00 | 52.57756 | -2.22345 | 35412 ft | 467 kts | 145° |
| 2026-04-23 18:01 | 52.52352 | -2.16446 | 35409 ft | 467 kts | 145° |
| 2026-04-23 18:01 | 52.46937 | -2.10552 | 35410 ft | 467 kts | 145° |
| 2026-04-23 18:02 | 52.42434 | -2.05665 | 35408 ft | 467 kts | 145° |
| 2026-04-23 18:02 | 52.36112 | -1.98820 | 35408 ft | 467 kts | 145° |
| 2026-04-23 18:03 | 52.30689 | -1.92973 | 35401 ft | 465 kts | 145° |
| 2026-04-23 18:03 | 52.25291 | -1.87170 | 35399 ft | 465 kts | 145° |
| 2026-04-23 18:04 | 52.19867 | -1.81356 | 35396 ft | 464 kts | 145° |
| 2026-04-23 18:04 | 52.14470 | -1.75587 | 35419 ft | 464 kts | 145° |
| 2026-04-23 18:05 | 52.09104 | -1.69867 | 35421 ft | 464 kts | 146° |
| 2026-04-23 18:05 | 52.03700 | -1.64124 | 35423 ft | 465 kts | 146° |
| 2026-04-23 18:06 | 51.98287 | -1.58389 | 34980 ft | 460 kts | 146° |
| 2026-04-23 18:06 | 51.95589 | -1.55536 | 33901 ft | 465 kts | 146° |
| 2026-04-23 18:06 | 51.92890 | -1.52686 | 32651 ft | 469 kts | 146° |
| 2026-04-23 18:06 | 51.90134 | -1.49780 | 31464 ft | 471 kts | 146° |
| 2026-04-23 18:07 | 51.87375 | -1.46876 | 30272 ft | 471 kts | 146° |
| 2026-04-23 18:07 | 51.84624 | -1.43985 | 28952 ft | 471 kts | 146° |
| 2026-04-23 18:07 | 51.81910 | -1.41139 | 27667 ft | 469 kts | 145° |
| 2026-04-23 18:07 | 51.79171 | -1.38269 | 26388 ft | 467 kts | 145° |
| 2026-04-23 18:08 | 51.77361 | -1.36374 | 25538 ft | 465 kts | 146° |
| 2026-04-23 18:08 | 51.73759 | -1.32609 | 23878 ft | 461 kts | 146° |
| 2026-04-23 18:08 | 51.71066 | -1.29800 | 22601 ft | 453 kts | 146° |
| 2026-04-23 18:08 | 51.68475 | -1.27102 | 21439 ft | 445 kts | 146° |
| 2026-04-23 18:09 | 51.65876 | -1.24399 | 20286 ft | 437 kts | 146° |
| 2026-04-23 18:09 | 51.63353 | -1.21778 | 19168 ft | 431 kts | 145° |
| 2026-04-23 18:09 | 51.60836 | -1.19166 | 18075 ft | 428 kts | 145° |
| 2026-04-23 18:09 | 51.58391 | -1.16634 | 17619 ft | 412 kts | 145° |
| 2026-04-23 18:10 | 51.56018 | -1.14182 | 16665 ft | 401 kts | 145° |
| 2026-04-23 18:10 | 51.53676 | -1.11761 | 15247 ft | 404 kts | 144° |
| 2026-04-23 18:10 | 51.51308 | -1.09316 | 14085 ft | 401 kts | 144° |
| 2026-04-23 18:10 | 51.48964 | -1.06899 | 12924 ft | 394 kts | 144° |
| 2026-04-23 18:11 | 51.46683 | -1.04548 | 11815 ft | 389 kts | 144° |
| 2026-04-23 18:11 | 51.44437 | -1.02235 | 10741 ft | 383 kts | 145° |
| 2026-04-23 18:11 | 51.42176 | -0.99913 | 9629 ft | 379 kts | 145° |
| 2026-04-23 18:11 | 51.39974 | -0.97654 | 8591 ft | 372 kts | 145° |
| 2026-04-23 18:12 | 51.37832 | -0.95459 | 7596 ft | 366 kts | 145° |
| 2026-04-23 18:12 | 51.35703 | -0.93279 | 6877 ft | 357 kts | 145° |
| 2026-04-23 18:12 | 51.33624 | -0.91153 | 6456 ft | 347 kts | 145° |
| 2026-04-23 18:12 | 51.31633 | -0.89118 | 6103 ft | 336 kts | 145° |
| 2026-04-23 18:13 | 51.29724 | -0.87169 | 6003 ft | 318 kts | 145° |
| 2026-04-23 18:13 | 51.27901 | -0.85316 | 5995 ft | 299 kts | 145° |
| 2026-04-23 18:13 | 51.26210 | -0.83598 | 5995 ft | 281 kts | 145° |
| 2026-04-23 18:13 | 51.24605 | -0.81968 | 5993 ft | 263 kts | 144° |
| 2026-04-23 18:14 | 51.23119 | -0.80457 | 5997 ft | 247 kts | 144° |
| 2026-04-23 18:14 | 51.21707 | -0.79022 | 5993 ft | 232 kts | 144° |
| 2026-04-23 18:14 | 51.20488 | -0.77444 | 6007 ft | 224 kts | 127° |
| 2026-04-23 18:14 | 51.19512 | -0.75480 | 5993 ft | 227 kts | 126° |
| 2026-04-23 18:15 | 51.18554 | -0.73524 | 5995 ft | 225 kts | 126° |
| 2026-04-23 18:15 | 51.17580 | -0.71540 | 5998 ft | 226 kts | 126° |
| 2026-04-23 18:15 | 51.16627 | -0.69603 | 5942 ft | 219 kts | 126° |
| 2026-04-23 18:15 | 51.15715 | -0.67753 | 5814 ft | 204 kts | 126° |
| 2026-04-23 18:16 | 51.14865 | -0.66044 | 5665 ft | 188 kts | 126° |
| 2026-04-23 18:16 | 51.14075 | -0.64465 | 5339 ft | 181 kts | 126° |
| 2026-04-23 18:16 | 51.13280 | -0.62877 | 4777 ft | 185 kts | 126° |
| 2026-04-23 18:17 | 51.12267 | -0.59205 | 3870 ft | 179 kts | 105° |
| 2026-04-23 18:17 | 51.11945 | -0.57352 | 3604 ft | 168 kts | 105° |
| 2026-04-23 18:17 | 51.11636 | -0.55561 | 3185 ft | 169 kts | 104° |
| 2026-04-23 18:17 | 51.11311 | -0.53788 | 3011 ft | 166 kts | 105° |
| 2026-04-23 18:18 | 51.10987 | -0.52016 | 2998 ft | 167 kts | 104° |
| 2026-04-23 18:18 | 51.10761 | -0.50190 | 2997 ft | 167 kts | 94° |
| 2026-04-23 18:18 | 51.10822 | -0.48360 | 3003 ft | 170 kts | 83° |
| 2026-04-23 18:18 | 51.11038 | -0.46536 | 2994 ft | 158 kts | 78° |
| 2026-04-23 18:19 | 51.11266 | -0.44944 | 2997 ft | 146 kts | 79° |
| 2026-04-23 18:19 | 51.11481 | -0.43356 | 2995 ft | 147 kts | 80° |
| 2026-04-23 18:19 | 51.11701 | -0.41749 | 2918 ft | 148 kts | 79° |
| 2026-04-23 18:19 | 51.11917 | -0.40181 | 2718 ft | 144 kts | 80° |
| 2026-04-23 18:20 | 51.12133 | -0.38594 | 2529 ft | 146 kts | 78° |
| 2026-04-23 18:20 | 51.12346 | -0.37046 | 2332 ft | 141 kts | 79° |
| 2026-04-23 18:20 | 51.12554 | -0.35531 | 2138 ft | 138 kts | 78° |
| 2026-04-23 18:20 | 51.12756 | -0.34061 | 1943 ft | 138 kts | 78° |
| 2026-04-23 18:21 | 51.12955 | -0.32604 | 1749 ft | 128 kts | 77° |
| 2026-04-23 18:21 | 51.13083 | -0.31693 | 1597 ft | 126 kts | 78° |
| 2026-04-23 18:21 | 51.13325 | -0.29909 | 1335 ft | 116 kts | 78° |
| 2026-04-23 18:21 | 51.13494 | -0.28633 | 1242 ft | 120 kts | 78° |
| 2026-04-23 18:22 | 51.13665 | -0.27308 | 1136 ft | 125 kts | 76° |
| 2026-04-23 18:22 | 51.13782 | -0.26418 | 1012 ft | 123 kts | 75° |
| 2026-04-23 18:22 | 51.14034 | -0.24665 | 773 ft | 123 kts | 76° |
| 2026-04-23 18:22 | 51.14159 | -0.23760 | 672 ft | 128 kts | 75° |
| 2026-04-23 18:23 | 51.14357 | -0.22381 | 429 ft | 121 kts | 76° |
| 2026-04-23 18:23 | 51.14704 | -0.19775 | 206 ft | 115 kts | 77° |
| 2026-04-23 18:24 | 51.14929 | -0.18527 | 212 ft | 32 kts | 51° |
| 2026-04-23 18:24 | 51.15018 | -0.18354 | 203 ft | 0 kts | 51° |
| 2026-04-23 18:25 | 51.15023 | -0.18345 | 203 ft | 4 kts | 51° |
| 2026-04-23 18:25 | 51.15055 | -0.18279 | 211 ft | 11 kts | 52° |
| 2026-04-23 18:26 | 51.15119 | -0.18192 | 207 ft | 13 kts | 15° |
| 2026-04-23 18:26 | 51.15210 | -0.18208 | 210 ft | 15 kts | 346° |
| 2026-04-23 18:26 | 51.15317 | -0.18249 | 206 ft | 17 kts | 347° |
| 2026-04-23 18:26 | 51.15440 | -0.18290 | 204 ft | 19 kts | 348° |
| 2026-04-23 18:27 | 51.15577 | -0.18338 | 204 ft | 21 kts | 347° |
| 2026-04-23 18:27 | 51.15636 | -0.18331 | 208 ft | 3 kts | 45° |
| 2026-04-23 18:27 | 51.15654 | -0.18264 | 207 ft | 11 kts | 78° |
| 2026-04-23 18:27 | 51.15671 | -0.18128 | 204 ft | 16 kts | 78° |
| 2026-04-23 18:28 | 51.15697 | -0.17930 | 209 ft | 11 kts | 77° |
| 2026-04-23 18:28 | 51.15704 | -0.17884 | 207 ft | 8 kts | 75° |
| 2026-04-23 18:28 | 51.15758 | -0.17870 | 204 ft | 10 kts | 346° |
| 2026-04-23 18:28 | 51.15773 | -0.17876 | 204 ft | 4 kts | 346° |
| 2026-04-23 18:29 | 51.15779 | -0.17878 | 204 ft | 0 kts | 346° |